Time;durP1;ratioP1;P1;durP2;ratioP2;P2;SDS_P1;SDS_P2;PMS_P1;PMS_P2;Temp;Humidity;BMP_temperature;BMP_pressure;BME280_temperature;BME280_humidity;BME280_pressure;Samples;Min_cycle;Max_cycle;Signal;HPM_P1;HPM_P2
2021/06/16 00:00:13;;;;;;;7.13;6.63;;;18.70;22.70;;;;;;5092446;28;20457;-73
2021/06/16 00:02:39;;;;;;;6.73;6.40;;;18.70;22.60;;;;;;5092533;28;20419;-73
2021/06/16 00:05:10;;;;;;;7.20;6.70;;;18.80;22.70;;;;;;5093850;28;20435;-73
2021/06/16 00:07:36;;;;;;;6.83;6.43;;;18.80;22.90;;;;;;5093013;28;20419;-73
2021/06/16 00:10:02;;;;;;;7.00;6.50;;;18.70;22.90;;;;;;5090880;28;20459;-73
2021/06/16 00:12:27;;;;;;;6.60;6.30;;;18.70;23.00;;;;;;5092990;28;20252;-73
2021/06/16 00:14:54;;;;;;;6.47;6.00;;;18.60;23.40;;;;;;5092107;28;20530;-73
2021/06/16 00:17:20;;;;;;;6.27;5.83;;;18.60;23.60;;;;;;5092485;28;20180;-73
2021/06/16 00:19:45;;;;;;;5.40;5.10;;;18.50;23.80;;;;;;5092018;28;20884;-73
2021/06/16 00:22:11;;;;;;;6.93;6.43;;;18.40;24.10;;;;;;5092287;28;20216;-74
2021/06/16 00:24:38;;;;;;;4.50;4.23;;;18.30;24.00;;;;;;5092428;28;20700;-73
2021/06/16 00:27:04;;;;;;;6.57;5.67;;;18.20;24.10;;;;;;5092203;28;20412;-73
2021/06/16 00:29:29;;;;;;;4.93;4.63;;;18.20;24.20;;;;;;5091675;28;20908;-72
2021/06/16 00:31:55;;;;;;;4.43;4.23;;;18.10;24.90;;;;;;5090914;28;20518;-73
2021/06/16 00:34:21;;;;;;;4.77;4.47;;;18.10;24.70;;;;;;5092203;28;20342;-73
2021/06/16 00:36:46;;;;;;;4.93;4.63;;;18.10;24.90;;;;;;5090899;28;20547;-72
2021/06/16 00:39:12;;;;;;;5.03;4.73;;;18.10;25.10;;;;;;5091789;28;20180;-73
2021/06/16 00:41:38;;;;;;;6.47;5.03;;;18.10;25.30;;;;;;5091286;28;20268;-72
2021/06/16 00:44:05;;;;;;;4.70;4.40;;;18.00;25.10;;;;;;5093204;28;20498;-73
2021/06/16 00:46:31;;;;;;;5.53;5.10;;;17.90;25.40;;;;;;5092340;28;20195;-73
2021/06/16 00:48:57;;;;;;;5.10;4.70;;;17.90;25.40;;;;;;5091612;28;20465;-73
2021/06/16 00:51:23;;;;;;;4.90;4.50;;;17.90;25.30;;;;;;5091897;28;20407;-73
2021/06/16 00:53:48;;;;;;;4.73;4.40;;;17.80;25.40;;;;;;5090790;28;20169;-73
2021/06/16 00:56:15;;;;;;;4.63;4.33;;;17.80;25.40;;;;;;5092479;28;20272;-73
2021/06/16 00:58:40;;;;;;;4.30;4.00;;;17.90;25.80;;;;;;5091650;28;20200;-73
2021/06/16 01:01:13;;;;;;;4.20;4.00;;;17.90;25.70;;;;;;5091276;28;20419;-73
2021/06/16 01:03:51;;;;;;;5.27;4.90;;;17.80;26.20;;;;;;5091317;28;20264;-72
2021/06/16 01:06:29;;;;;;;6.60;4.53;;;17.80;26.20;;;;;;5091417;28;20488;-73
2021/06/16 01:09:11;;;;;;;4.97;4.67;;;17.70;26.20;;;;;;5089917;28;20542;-73
2021/06/16 01:12:03;;;;;;;4.50;4.20;;;17.70;26.20;;;;;;5090708;28;20411;-72
2021/06/16 01:14:41;;;;;;;4.23;3.93;;;17.60;26.30;;;;;;5091684;28;20477;-74
2021/06/16 01:17:10;;;;;;;4.50;4.20;;;17.60;26.20;;;;;;5090312;28;20463;-73
2021/06/16 01:19:50;;;;;;;5.03;4.70;;;17.60;26.30;;;;;;5091222;28;20458;-73
2021/06/16 01:22:45;;;;;;;4.40;4.00;;;17.60;26.50;;;;;;5091255;28;20443;-73
2021/06/16 01:25:24;;;;;;;4.23;3.93;;;17.60;26.80;;;;;;5088549;28;20498;-73
2021/06/16 01:27:51;;;;;;;5.93;4.47;;;17.60;26.90;;;;;;5091051;28;20761;-73
2021/06/16 01:30:17;;;;;;;4.43;4.13;;;17.60;27.10;;;;;;5090972;28;20459;-73
2021/06/16 01:32:42;;;;;;;4.30;4.00;;;17.50;27.50;;;;;;5091171;28;20513;-73
2021/06/16 01:35:09;;;;;;;4.10;3.80;;;17.50;27.60;;;;;;5091151;28;20993;-74
2021/06/16 01:37:34;;;;;;;4.63;4.33;;;17.40;27.70;;;;;;5091213;28;20181;-73
2021/06/16 01:40:01;;;;;;;3.60;3.40;;;17.40;27.70;;;;;;5089595;28;20415;-73
2021/06/16 01:42:28;;;;;;;6.33;4.50;;;17.40;27.70;;;;;;5089793;28;20232;-73
2021/06/16 01:44:54;;;;;;;5.70;3.87;;;17.40;27.70;;;;;;5091255;28;20521;-73
2021/06/16 01:47:21;;;;;;;4.03;3.73;;;17.40;27.70;;;;;;5091164;28;20891;-73
2021/06/16 01:49:48;;;;;;;3.93;3.53;;;17.40;27.70;;;;;;5091024;28;20225;-74
2021/06/16 01:52:17;;;;;;;4.60;4.20;;;17.40;27.70;;;;;;5091239;28;20414;-73
2021/06/16 01:54:43;;;;;;;3.20;3.00;;;17.40;27.70;;;;;;5091010;28;20431;-73
2021/06/16 01:57:11;;;;;;;4.20;3.90;;;17.40;27.70;;;;;;5089992;28;20430;-73
2021/06/16 01:59:42;;;;;;;4.27;3.07;;;17.40;27.70;;;;;;5091054;28;20411;-74
2021/06/16 02:02:08;;;;;;;4.13;3.83;;;17.30;27.60;;;;;;5091244;28;20911;-73
2021/06/16 02:04:35;;;;;;;4.70;3.87;;;17.30;27.60;;;;;;5091094;28;20469;-73
2021/06/16 02:07:12;;;;;;;4.37;4.03;;;17.30;27.60;;;;;;5091193;28;20415;-74
2021/06/16 02:09:39;;;;;;;3.07;2.87;;;17.30;27.60;;;;;;5091017;28;20481;-73
2021/06/16 02:12:09;;;;;;;5.33;4.30;;;17.30;28.00;;;;;;5089899;28;20415;-73
2021/06/16 02:14:35;;;;;;;5.03;3.60;;;17.30;28.20;;;;;;5092638;28;20423;-74
2021/06/16 02:17:08;;;;;;;4.73;3.73;;;17.30;28.30;;;;;;5096152;28;20408;-72
2021/06/16 02:19:35;;;;;;;3.90;3.60;;;17.30;28.40;;;;;;5095160;28;20169;-73
2021/06/16 02:22:04;;;;;;;5.43;3.90;;;17.20;28.70;;;;;;5095774;28;20922;-72
2021/06/16 02:24:30;;;;;;;4.27;3.87;;;17.20;28.90;;;;;;5094896;28;20948;-73
2021/06/16 02:26:55;;;;;;;5.03;4.07;;;17.20;28.30;;;;;;5095018;28;20438;-73
2021/06/16 02:29:22;;;;;;;4.07;3.77;;;17.20;28.30;;;;;;5095603;28;20212;-73
2021/06/16 02:31:48;;;;;;;5.47;3.87;;;17.20;28.00;;;;;;5100697;28;20180;-74
2021/06/16 02:34:13;;;;;;;3.90;3.60;;;17.20;28.20;;;;;;5110257;28;20422;-74
2021/06/16 02:36:45;;;;;;;3.80;3.60;;;17.30;27.90;;;;;;5110599;28;20686;-72
2021/06/16 02:39:18;;;;;;;3.47;3.27;;;17.20;28.10;;;;;;5108762;28;20184;-73
2021/06/16 02:41:46;;;;;;;4.43;3.33;;;17.20;28.30;;;;;;5109703;28;20418;-73
2021/06/16 02:44:13;;;;;;;4.33;3.93;;;17.20;28.60;;;;;;5110454;28;20418;-73
2021/06/16 02:46:42;;;;;;;4.73;3.60;;;17.30;28.80;;;;;;5108754;28;20446;-72
2021/06/16 02:49:08;;;;;;;7.43;4.90;;;17.20;28.70;;;;;;5108811;28;20485;-73
2021/06/16 02:51:39;;;;;;;5.23;4.10;;;17.20;29.20;;;;;;5110952;28;20452;-73
2021/06/16 02:54:09;;;;;;;4.70;4.30;;;17.10;29.40;;;;;;5109675;28;20927;-72
2021/06/16 02:56:39;;;;;;;4.50;4.20;;;17.10;29.50;;;;;;5109230;28;20908;-72
2021/06/16 02:59:06;;;;;;;6.10;4.73;;;17.10;29.80;;;;;;5109601;28;20422;-72
2021/06/16 03:01:32;;;;;;;4.17;3.87;;;17.10;29.90;;;;;;5107928;28;20430;-73
2021/06/16 03:03:59;;;;;;;8.90;4.40;;;17.10;30.00;;;;;;5106790;28;20450;-74
2021/06/16 03:06:25;;;;;;;3.50;3.20;;;17.00;30.10;;;;;;5110439;28;20419;-74
2021/06/16 03:08:55;;;;;;;3.83;3.53;;;17.00;30.30;;;;;;5110658;28;20869;-72
2021/06/16 03:11:21;;;;;;;3.70;3.40;;;17.00;30.50;;;;;;5107829;28;20481;-74
2021/06/16 03:13:48;;;;;;;5.90;4.20;;;17.00;30.90;;;;;;5099298;28;20423;-73
2021/06/16 03:16:14;;;;;;;5.03;4.53;;;16.90;31.50;;;;;;5093491;28;20477;-73
2021/06/16 03:18:42;;;;;;;4.10;3.80;;;16.80;31.70;;;;;;5093788;28;20461;-75
2021/06/16 03:21:10;;;;;;;4.30;3.70;;;16.70;31.60;;;;;;5092032;28;20433;-72
2021/06/16 03:23:36;;;;;;;4.40;4.00;;;16.70;31.80;;;;;;5093447;28;20910;-73
2021/06/16 03:26:03;;;;;;;4.23;3.93;;;16.60;32.20;;;;;;5093056;28;20948;-73
2021/06/16 03:28:29;;;;;;;4.67;4.17;;;16.60;32.40;;;;;;5093138;28;20639;-73
2021/06/16 03:31:00;;;;;;;6.00;4.30;;;16.60;32.70;;;;;;5091617;28;20412;-73
2021/06/16 03:33:27;;;;;;;5.37;4.97;;;16.60;32.80;;;;;;5093071;28;20417;-73
2021/06/16 03:35:53;;;;;;;6.97;4.00;;;16.60;33.10;;;;;;5093059;28;20464;-73
2021/06/16 03:38:19;;;;;;;8.53;4.33;;;16.60;33.00;;;;;;5093070;28;20505;-73
2021/06/16 03:40:48;;;;;;;6.00;3.87;;;16.60;33.20;;;;;;5093454;28;20176;-73
2021/06/16 03:43:15;;;;;;;4.73;4.33;;;16.60;33.10;;;;;;5093772;28;20418;-73
2021/06/16 03:45:43;;;;;;;7.97;4.67;;;16.70;33.10;;;;;;5092930;28;20795;-74
2021/06/16 03:48:11;;;;;;;5.60;4.93;;;16.80;32.80;;;;;;5093108;28;20418;-74
2021/06/16 03:50:39;;;;;;;4.93;4.40;;;16.80;32.60;;;;;;5093076;28;20411;-72
2021/06/16 03:53:09;;;;;;;4.80;4.43;;;16.90;31.80;;;;;;5093165;28;20445;-72
2021/06/16 03:55:34;;;;;;;6.43;4.43;;;17.00;31.90;;;;;;5091306;28;20439;-72
2021/06/16 03:58:01;;;;;;;3.27;3.00;;;17.10;32.00;;;;;;5091584;28;20419;-73
2021/06/16 04:00:26;;;;;;;8.57;4.03;;;17.20;31.50;;;;;;5092424;28;20582;-73
2021/06/16 04:02:52;;;;;;;4.23;3.83;;;17.20;31.20;;;;;;5092481;28;20419;-72
2021/06/16 04:05:18;;;;;;;5.40;4.93;;;17.20;31.00;;;;;;5093202;28;20265;-73
2021/06/16 04:07:49;;;;;;;6.17;4.90;;;17.30;30.80;;;;;;5092790;28;20475;-73
2021/06/16 04:10:18;;;;;;;7.77;4.10;;;17.40;30.40;;;;;;5092465;28;20814;-74
2021/06/16 04:12:48;;;;;;;5.03;4.47;;;17.60;30.00;;;;;;5091390;28;20775;-73
2021/06/16 04:15:17;;;;;;;5.37;4.87;;;17.80;29.40;;;;;;5092384;28;20572;-73
2021/06/16 04:17:42;;;;;;;5.27;4.87;;;17.90;29.20;;;;;;5092445;28;20490;-73
2021/06/16 04:20:09;;;;;;;5.67;4.20;;;18.10;28.60;;;;;;5091876;28;20565;-73
2021/06/16 04:22:35;;;;;;;4.37;3.97;;;18.20;28.20;;;;;;5092607;28;20759;-73
2021/06/16 04:25:00;;;;;;;5.40;5.00;;;18.30;28.30;;;;;;5092210;28;20510;-72
2021/06/16 04:27:26;;;;;;;5.33;4.83;;;18.30;28.00;;;;;;5091390;28;20230;-73
2021/06/16 04:29:51;;;;;;;3.97;3.67;;;18.40;28.10;;;;;;5091788;28;20197;-73
2021/06/16 04:32:17;;;;;;;4.83;4.43;;;18.40;27.60;;;;;;5090911;28;20174;-72
2021/06/16 04:34:43;;;;;;;5.43;5.03;;;18.60;27.30;;;;;;5092559;28;20272;-74
2021/06/16 04:37:09;;;;;;;5.50;5.00;;;18.70;27.20;;;;;;5094905;28;20457;-73
2021/06/16 04:39:35;;;;;;;7.03;5.57;;;18.80;27.00;;;;;;5092111;28;20177;-74
2021/06/16 04:42:01;;;;;;;6.60;4.47;;;18.90;26.40;;;;;;5094254;28;20954;-73
2021/06/16 04:44:27;;;;;;;5.03;4.63;;;19.00;26.00;;;;;;5094505;28;20196;-73
2021/06/16 04:46:53;;;;;;;5.77;5.27;;;19.10;25.90;;;;;;5094431;28;20510;-74
2021/06/16 04:49:18;;;;;;;5.63;5.13;;;19.30;25.80;;;;;;5092942;28;20205;-74
2021/06/16 04:51:44;;;;;;;6.40;5.90;;;19.50;25.60;;;;;;5089820;28;20184;-72
2021/06/16 04:54:12;;;;;;;6.47;6.07;;;19.80;25.10;;;;;;5075361;28;20804;-73
2021/06/16 04:56:40;;;;;;;7.60;6.27;;;21.00;22.80;;;;;;5073243;28;20177;-73
2021/06/16 04:59:05;;;;;;;8.43;7.77;;;21.40;22.80;;;;;;5085617;28;20414;-73
2021/06/16 05:01:31;;;;;;;11.20;9.40;;;22.10;20.50;;;;;;5091359;28;21062;-74
2021/06/16 05:03:57;;;;;;;10.07;9.43;;;22.70;19.50;;;;;;5091514;28;20177;-73
2021/06/16 05:06:23;;;;;;;11.30;10.47;;;23.20;19.30;;;;;;5091847;28;20430;-72
2021/06/16 05:08:49;;;;;;;11.70;11.00;;;23.80;17.30;;;;;;5072625;28;20475;-73
2021/06/16 05:11:15;;;;;;;11.80;11.10;;;24.00;16.90;;;;;;5070796;28;20412;-73
2021/06/16 05:13:40;;;;;;;12.50;11.77;;;24.50;16.10;;;;;;5071040;28;20181;-73
2021/06/16 05:16:06;;;;;;;12.97;12.27;;;24.90;15.50;;;;;;5076602;28;20198;-73
2021/06/16 05:18:32;;;;;;;14.33;13.53;;;25.30;14.30;;;;;;5073387;28;20221;-74
2021/06/16 05:20:58;;;;;;;13.20;12.50;;;25.70;13.60;;;;;;5070820;28;20185;-73
2021/06/16 05:23:30;;;;;;;14.73;14.10;;;26.10;13.40;;;;;;5071421;28;20415;-74
2021/06/16 05:25:55;;;;;;;15.57;14.73;;;26.30;12.70;;;;;;5071888;28;20691;-73
2021/06/16 05:28:22;;;;;;;15.87;15.07;;;26.70;11.90;;;;;;5075892;28;20408;-73
2021/06/16 05:30:47;;;;;;;15.77;14.93;;;26.90;11.90;;;;;;5072819;28;20218;-74
2021/06/16 05:33:13;;;;;;;15.80;15.10;;;27.20;11.50;;;;;;5072742;28;20490;-73
2021/06/16 05:35:38;;;;;;;16.10;15.40;;;27.40;10.70;;;;;;5071636;28;20220;-74
2021/06/16 05:38:04;;;;;;;16.33;15.53;;;27.40;10.90;;;;;;5075391;28;20182;-74
2021/06/16 05:40:30;;;;;;;16.00;15.30;;;27.50;10.80;;;;;;5073271;28;20181;-74
2021/06/16 05:42:56;;;;;;;15.70;15.10;;;27.40;10.70;;;;;;5072857;28;20178;-74
2021/06/16 05:45:21;;;;;;;16.90;16.00;;;27.30;11.10;;;;;;5076220;28;20457;-74
2021/06/16 05:47:47;;;;;;;16.67;15.83;;;27.40;10.70;;;;;;5073880;28;20181;-75
2021/06/16 05:50:13;;;;;;;17.13;16.30;;;27.30;10.80;;;;;;5075127;28;20259;-74
2021/06/16 05:52:38;;;;;;;16.13;15.43;;;27.50;10.90;;;;;;5078572;28;20643;-75
2021/06/16 05:55:05;;;;;;;17.60;16.80;;;27.70;10.30;;;;;;5078843;28;20432;-73
2021/06/16 05:57:31;;;;;;;19.37;18.13;;;28.00;10.70;;;;;;5079501;28;20655;-74
2021/06/16 05:59:57;;;;;;;17.90;17.00;;;28.00;9.70;;;;;;5075810;28;20432;-72
2021/06/16 06:02:22;;;;;;;18.10;17.30;;;27.80;15.00;;;;;;5092484;28;20511;-74
2021/06/16 06:04:48;;;;;;;18.30;17.50;;;28.10;19.80;;;;;;5095339;28;20196;-73
2021/06/16 06:07:13;;;;;;;17.50;16.70;;;28.30;19.00;;;;;;5094542;28;20181;-73
2021/06/16 06:09:39;;;;;;;19.00;17.90;;;28.60;17.40;;;;;;5097886;28;20284;-73
2021/06/16 06:12:05;;;;;;;20.73;19.17;;;28.70;17.20;;;;;;5100442;28;20197;-74
2021/06/16 06:14:31;;;;;;;18.90;18.10;;;28.90;17.90;;;;;;5098040;28;20193;-74
2021/06/16 06:16:56;;;;;;;18.40;17.60;;;29.10;17.90;;;;;;5097250;28;20188;-74
2021/06/16 06:19:22;;;;;;;19.87;19.00;;;29.40;19.20;;;;;;5097097;28;20216;-72
2021/06/16 06:21:47;;;;;;;20.20;19.30;;;29.60;14.20;;;;;;5096074;28;20185;-73
2021/06/16 06:24:13;;;;;;;19.20;18.40;;;29.90;16.40;;;;;;5094179;28;20222;-73
2021/06/16 06:26:39;;;;;;;20.27;19.37;;;30.10;17.30;;;;;;5094665;28;20309;-73
2021/06/16 06:29:04;;;;;;;20.07;19.10;;;30.30;19.40;;;;;;5095773;28;20193;-74
2021/06/16 06:31:30;;;;;;;19.83;19.03;;;30.50;7.90;;;;;;5097804;28;20242;-73
2021/06/16 06:33:56;;;;;;;21.07;19.70;;;30.90;7.70;;;;;;5094523;28;20201;-73
2021/06/16 06:36:22;;;;;;;22.70;20.40;;;31.20;7.20;;;;;;5096258;28;20216;-73
2021/06/16 06:38:48;;;;;;;21.50;20.50;;;31.30;7.00;;;;;;5092806;28;20517;-73
2021/06/16 06:41:14;;;;;;;21.80;20.60;;;31.50;6.20;;;;;;5095966;28;20458;-74
2021/06/16 06:43:40;;;;;;;21.67;20.43;;;31.80;6.50;;;;;;5096279;28;20181;-73
2021/06/16 06:46:06;;;;;;;23.00;21.70;;;32.10;5.60;;;;;;5096530;28;21006;-73
2021/06/16 06:48:32;;;;;;;20.63;19.53;;;32.40;5.60;;;;;;5098901;28;20412;-74
2021/06/16 06:50:58;;;;;;;20.90;20.00;;;32.60;5.70;;;;;;5095699;28;20197;-74
2021/06/16 06:53:24;;;;;;;22.40;21.40;;;32.90;4.80;;;;;;5093965;28;20200;-73
2021/06/16 06:55:51;;;;;;;22.40;21.20;;;33.30;4.50;;;;;;5094228;28;20197;-74
2021/06/16 06:58:16;;;;;;;21.50;20.53;;;33.50;4.20;;;;;;5096298;28;20407;-74
2021/06/16 07:00:42;;;;;;;21.43;20.40;;;33.60;3.90;;;;;;5093556;28;20776;-74
2021/06/16 07:03:08;;;;;;;22.10;20.90;;;33.50;4.00;;;;;;5095091;28;20180;-74
2021/06/16 07:05:33;;;;;;;21.57;20.50;;;33.70;6.90;;;;;;5094861;28;20557;-74
2021/06/16 07:07:59;;;;;;;22.30;21.30;;;33.80;6.30;;;;;;5095803;28;20203;-72
2021/06/16 07:10:24;;;;;;;23.40;21.83;;;33.80;6.30;;;;;;5094522;28;20232;-74
2021/06/16 07:12:50;;;;;;;22.00;21.00;;;33.80;6.30;;;;;;5094479;28;20176;-74
2021/06/16 07:15:16;;;;;;;21.00;20.03;;;33.80;10.40;;;;;;5094829;28;20192;-74
2021/06/16 07:17:43;;;;;;;22.40;21.40;;;33.90;10.30;;;;;;5094680;28;20271;-73
2021/06/16 07:20:09;;;;;;;22.33;21.13;;;34.30;11.20;;;;;;5093646;28;20174;-76
2021/06/16 07:22:34;;;;;;;22.10;21.10;;;34.40;11.70;;;;;;5095870;28;20423;-76
2021/06/16 07:25:00;;;;;;;23.67;21.57;;;34.60;12.60;;;;;;5095713;28;20427;-75
2021/06/16 07:27:26;;;;;;;22.87;21.50;;;34.70;13.40;;;;;;5095833;28;20177;-74
2021/06/16 07:29:51;;;;;;;21.37;20.17;;;34.40;15.70;;;;;;5094467;28;20196;-75
2021/06/16 07:32:17;;;;;;;22.00;20.70;;;34.60;21.40;;;;;;5094926;28;20622;-75
2021/06/16 07:34:43;;;;;;;22.00;21.10;;;34.90;32.10;;;;;;5096272;28;20201;-76
2021/06/16 07:37:09;;;;;;;23.87;22.57;;;35.00;19.40;;;;;;5094822;28;20181;-75
2021/06/16 07:39:35;;;;;;;22.63;21.70;;;35.00;19.90;;;;;;5092196;28;20497;-76
2021/06/16 07:42:01;;;;;;;22.67;21.57;;;34.60;20.40;;;;;;5095058;28;20189;-75
2021/06/16 07:44:26;;;;;;;22.87;21.80;;;34.80;20.60;;;;;;5084565;28;20292;-74
2021/06/16 07:46:53;;;;;;;23.17;21.97;;;34.80;21.00;;;;;;5092054;28;20527;-74
2021/06/16 07:49:19;;;;;;;21.97;20.97;;;34.90;20.70;;;;;;5072876;28;20215;-73
2021/06/16 07:51:45;;;;;;;23.50;22.30;;;35.20;20.90;;;;;;5073860;28;20419;-74
2021/06/16 07:54:13;;;;;;;22.50;21.50;;;35.50;20.50;;;;;;5085420;28;20431;-73
2021/06/16 07:56:41;;;;;;;23.17;22.07;;;35.80;20.40;;;;;;5092739;28;20834;-74
2021/06/16 07:59:07;;;;;;;22.67;21.67;;;36.20;21.40;;;;;;5093053;28;20463;-74
2021/06/16 08:01:34;;;;;;;22.67;21.77;;;36.50;22.00;;;;;;5092595;28;20430;-74
2021/06/16 08:03:59;;;;;;;23.33;22.20;;;36.70;22.40;;;;;;5092646;28;20943;-74
2021/06/16 08:06:25;;;;;;;23.17;22.07;;;36.90;24.50;;;;;;5084144;28;20439;-74
2021/06/16 08:08:50;;;;;;;22.80;21.77;;;36.80;24.30;;;;;;5072313;28;20667;-73
2021/06/16 08:11:16;;;;;;;23.73;22.33;;;36.90;25.90;;;;;;5080470;28;20189;-73
2021/06/16 08:13:42;;;;;;;23.57;22.20;;;37.60;28.30;;;;;;5092203;28;20208;-72
2021/06/16 08:16:08;;;;;;;23.50;22.40;;;37.80;27.70;;;;;;5093321;28;20453;-74
2021/06/16 08:18:33;;;;;;;23.07;21.87;;;38.00;1.00;;;;;;5092005;28;20181;-73
2021/06/16 08:20:59;;;;;;;24.00;22.90;;;38.20;1.00;;;;;;5091827;28;20711;-73
2021/06/16 08:23:25;;;;;;;22.77;21.80;;;37.90;1.00;;;;;;5093739;28;20181;-74
2021/06/16 08:25:51;;;;;;;23.30;22.20;;;37.90;1.00;;;;;;5093314;28;20447;-73
2021/06/16 08:28:17;;;;;;;23.30;22.03;;;38.10;1.00;;;;;;5093998;28;20451;-73
2021/06/16 08:30:43;;;;;;;23.17;22.10;;;38.00;1.00;;;;;;5093131;28;20463;-73
2021/06/16 08:33:10;;;;;;;23.27;22.23;;;37.60;1.00;;;;;;5092113;28;20868;-73
2021/06/16 08:35:36;;;;;;;22.93;21.83;;;37.40;1.00;;;;;;5091825;28;20590;-74
2021/06/16 08:38:02;;;;;;;23.23;22.23;;;37.20;1.00;;;;;;5090683;28;20423;-74
2021/06/16 08:40:28;;;;;;;23.17;22.10;;;37.20;1.00;;;;;;5091757;28;20415;-73
2021/06/16 08:42:53;;;;;;;22.77;21.77;;;37.00;1.00;;;;;;5091977;28;20185;-74
2021/06/16 08:45:19;;;;;;;23.43;21.60;;;36.80;1.70;;;;;;5092037;28;20193;-74
2021/06/16 08:47:47;;;;;;;22.40;21.50;;;36.70;1.00;;;;;;5092095;28;20180;-72
2021/06/16 08:50:14;;;;;;;22.70;21.70;;;36.30;1.00;;;;;;5090200;28;20813;-73
2021/06/16 08:52:39;;;;;;;22.57;21.47;;;35.80;1.30;;;;;;5091919;28;20427;-74
2021/06/16 08:55:11;;;;;;;22.83;21.40;;;35.70;1.80;;;;;;5080910;28;20466;-72
2021/06/16 08:57:38;;;;;;;22.07;21.07;;;35.40;2.40;;;;;;5067887;28;20236;-72
2021/06/16 09:00:06;;;;;;;22.70;21.47;;;35.40;2.70;;;;;;5067380;28;20435;-73
2021/06/16 09:02:32;;;;;;;23.60;22.50;;;35.10;2.80;;;;;;5084863;28;20514;-72
2021/06/16 09:04:57;;;;;;;22.27;21.17;;;34.20;3.70;;;;;;5087952;28;21290;-73
2021/06/16 09:07:28;;;;;;;22.07;21.17;;;33.50;3.80;;;;;;5086205;28;20191;-72
2021/06/16 09:10:13;;;;;;;21.40;20.50;;;32.80;4.30;;;;;;5086374;28;20213;-72
2021/06/16 09:13:01;;;;;;;22.00;21.00;;;32.30;5.50;;;;;;5087167;28;20441;-72
2021/06/16 09:15:29;;;;;;;21.23;20.23;;;31.70;9.10;;;;;;5087941;28;20500;-72
2021/06/16 09:18:08;;;;;;;21.57;20.63;;;31.40;11.10;;;;;;5087645;28;20431;-72
2021/06/16 09:20:40;;;;;;;21.53;20.30;;;31.30;6.90;;;;;;5086976;28;20473;-73
2021/06/16 09:23:12;;;;;;;21.33;20.43;;;31.40;7.60;;;;;;5087507;28;20514;-72
2021/06/16 09:25:39;;;;;;;21.07;20.17;;;31.30;5.00;;;;;;5087149;28;20439;-72
2021/06/16 09:28:06;;;;;;;22.27;21.20;;;31.00;5.10;;;;;;5088110;28;20708;-72
2021/06/16 09:30:35;;;;;;;21.87;20.87;;;31.20;4.00;;;;;;5087660;28;20536;-72
2021/06/16 09:33:06;;;;;;;22.77;20.93;;;31.10;3.40;;;;;;5086150;28;20567;-72
2021/06/16 09:35:45;;;;;;;21.40;20.50;;;30.90;4.80;;;;;;5086482;28;20996;-72
2021/06/16 09:38:22;;;;;;;21.80;20.90;;;30.90;4.80;;;;;;5087914;28;20501;-72
2021/06/16 09:40:48;;;;;;;21.20;20.30;;;31.20;3.90;;;;;;5087325;28;20425;-72
2021/06/16 09:43:16;;;;;;;20.67;19.80;;;31.30;2.90;;;;;;5086207;28;21050;-72
2021/06/16 09:45:44;;;;;;;21.00;20.10;;;31.20;5.80;;;;;;5087276;28;20189;-72
2021/06/16 09:48:23;;;;;;;21.47;20.47;;;31.20;2.80;;;;;;5087086;28;20951;-72
2021/06/16 09:50:52;;;;;;;21.37;20.47;;;31.40;4.20;;;;;;5087208;28;20415;-72
2021/06/16 09:53:18;;;;;;;20.17;19.37;;;31.50;1.90;;;;;;5087842;28;20426;-72
2021/06/16 09:55:44;;;;;;;22.07;21.00;;;31.50;3.00;;;;;;5091503;28;20424;-74
2021/06/16 09:58:12;;;;;;;21.17;20.10;;;31.60;1.70;;;;;;5092629;28;20559;-73
2021/06/16 10:00:43;;;;;;;22.77;21.33;;;31.80;3.30;;;;;;5091115;28;20407;-73
2021/06/16 10:03:09;;;;;;;21.63;20.73;;;31.90;2.90;;;;;;5093973;28;20448;-74
2021/06/16 10:05:56;;;;;;;21.70;20.80;;;32.10;3.60;;;;;;5080213;28;20460;-74
2021/06/16 10:08:23;;;;;;;21.03;20.13;;;32.20;2.50;;;;;;5068207;28;20421;-75
2021/06/16 10:10:50;;;;;;;22.20;21.00;;;32.40;3.00;;;;;;5080461;28;20471;-73
2021/06/16 10:13:24;;;;;;;21.43;20.60;;;32.40;2.40;;;;;;5080667;28;21244;-74
2021/06/16 10:15:50;;;;;;;21.33;20.43;;;32.40;2.90;;;;;;5091290;28;20437;-73
2021/06/16 10:18:17;;;;;;;22.47;21.27;;;32.40;2.90;;;;;;5091963;28;20431;-74
2021/06/16 10:20:42;;;;;;;22.63;21.23;;;32.10;2.60;;;;;;5092457;28;20177;-74
2021/06/16 10:23:09;;;;;;;21.30;20.50;;;32.00;3.10;;;;;;5094035;28;20523;-74
2021/06/16 10:25:35;;;;;;;21.97;21.00;;;31.80;2.90;;;;;;5092140;28;20571;-73
2021/06/16 10:28:01;;;;;;;21.77;20.83;;;31.70;2.10;;;;;;5091516;28;20427;-74
2021/06/16 10:30:31;;;;;;;22.00;21.10;;;31.90;2.60;;;;;;5089366;28;20215;-72
2021/06/16 10:32:57;;;;;;;21.80;20.80;;;32.00;3.30;;;;;;5090812;28;20457;-74
2021/06/16 10:35:29;;;;;;;21.60;20.70;;;31.70;2.60;;;;;;5094322;22;20879;-72
2021/06/16 10:38:16;;;;;;;21.97;21.07;;;31.70;3.00;;;;;;5074033;28;20202;-72
2021/06/16 10:40:47;;;;;;;21.97;20.97;;;31.40;2.90;;;;;;5074372;28;20396;-72
2021/06/16 10:43:16;;;;;;;22.97;21.67;;;31.40;3.20;;;;;;5074553;28;20434;-73
2021/06/16 10:45:49;;;;;;;22.53;21.53;;;31.40;1.60;;;;;;5074915;28;20428;-72
2021/06/16 10:48:15;;;;;;;22.60;21.27;;;31.60;1.00;;;;;;5074832;28;20389;-72
2021/06/16 10:50:47;;;;;;;22.37;21.37;;;31.70;1.30;;;;;;5074650;28;20935;-73
2021/06/16 10:53:13;;;;;;;22.40;21.50;;;31.90;2.30;;;;;;5074364;28;20442;-73
2021/06/16 10:55:53;;;;;;;21.93;21.07;;;32.10;1.80;;;;;;5074663;28;20427;-72
2021/06/16 10:58:21;;;;;;;21.40;20.50;;;32.10;2.00;;;;;;5074590;28;20198;-74
2021/06/16 11:01:15;;;;;;;21.30;20.50;;;31.70;2.90;;;;;;5069415;28;20443;-74
2021/06/16 11:03:47;;;;;;;22.27;21.23;;;31.70;2.10;;;;;;5054572;28;20925;-73
2021/06/16 11:06:34;;;;;;;22.77;21.60;;;31.60;3.20;;;;;;5071661;28;20779;-72
2021/06/16 11:09:01;;;;;;;21.73;20.90;;;31.70;2.10;;;;;;5053019;28;20551;-73
2021/06/16 11:11:46;;;;;;;23.17;22.07;;;31.60;2.10;;;;;;5054134;28;20425;-74
2021/06/16 11:14:34;;;;;;;22.10;21.20;;;31.50;1.70;;;;;;5061034;28;20730;-73
2021/06/16 11:17:01;;;;;;;22.53;21.43;;;31.80;3.60;;;;;;5074206;28;20511;-73
2021/06/16 11:19:35;;;;;;;22.47;21.47;;;31.90;3.60;;;;;;5074635;28;20432;-73
2021/06/16 11:22:04;;;;;;;20.97;20.17;;;31.80;3.20;;;;;;5074071;28;20406;-74
2021/06/16 11:25:15;;;;;;;22.37;21.37;;;31.80;2.50;;;;;;5054164;28;20885;-74
2021/06/16 11:27:50;;;;;;;21.73;20.93;;;31.70;3.30;;;;;;5067197;28;20436;-73
2021/06/16 11:30:46;;;;;;;22.63;21.70;;;32.00;3.10;;;;;;5071828;28;20550;-73
2021/06/16 11:33:12;;;;;;;23.43;22.33;;;32.10;3.80;;;;;;5073964;28;20408;-74
2021/06/16 11:35:42;;;;;;;23.00;21.57;;;32.20;2.50;;;;;;5073002;28;20467;-74
2021/06/16 11:38:10;;;;;;;22.93;21.93;;;32.20;2.60;;;;;;5074215;28;20268;-73
2021/06/16 11:40:36;;;;;;;22.70;21.60;;;32.30;2.30;;;;;;5073671;28;20421;-74
2021/06/16 11:43:02;;;;;;;22.40;21.50;;;32.30;1.90;;;;;;5054598;28;20447;-74
2021/06/16 11:45:32;;;;;;;22.60;21.70;;;32.40;1.00;;;;;;5055245;28;20474;-74
2021/06/16 11:48:00;;;;;;;22.30;21.40;;;32.50;2.90;;;;;;5065436;28;20420;-73
2021/06/16 11:50:34;;;;;;;24.23;23.10;;;32.50;1.30;;;;;;5074073;28;20593;-73
2021/06/16 11:53:05;;;;;;;21.83;20.93;;;32.60;1.00;;;;;;5076003;28;20412;-74
2021/06/16 11:55:48;;;;;;;23.40;22.30;;;32.60;1.20;;;;;;5074350;28;20431;-74
2021/06/16 11:58:36;;;;;;;22.90;21.93;;;32.50;1.40;;;;;;5073792;28;20519;-74
2021/06/16 12:01:06;;;;;;;23.10;22.00;;;32.30;3.00;;;;;;5072106;28;20417;-73
2021/06/16 12:03:32;;;;;;;22.47;21.50;;;32.20;1.00;;;;;;5064976;28;20416;-74
2021/06/16 12:06:05;;;;;;;22.77;21.53;;;32.20;2.00;;;;;;5073216;28;20489;-73
2021/06/16 12:08:31;;;;;;;22.70;21.60;;;32.00;1.00;;;;;;5072887;28;20175;-74
2021/06/16 12:10:57;;;;;;;22.30;21.40;;;32.00;2.30;;;;;;5073707;28;20807;-72
2021/06/16 12:13:23;;;;;;;22.13;21.23;;;32.10;2.60;;;;;;5071591;28;20416;-74
2021/06/16 12:15:49;;;;;;;22.20;21.30;;;32.10;1.00;;;;;;5073563;28;20436;-74
2021/06/16 12:18:17;;;;;;;22.90;21.60;;;32.20;1.00;;;;;;5072484;28;20213;-73
2021/06/16 12:20:47;;;;;;;22.53;21.53;;;32.10;1.00;;;;;;5073103;28;20412;-73
2021/06/16 12:23:40;;;;;;;22.13;21.23;;;32.00;1.00;;;;;;5073534;28;20419;-73
2021/06/16 12:26:25;;;;;;;21.87;20.97;;;32.00;1.00;;;;;;5073510;28;20444;-73
2021/06/16 12:28:55;;;;;;;22.30;21.30;;;32.20;2.10;;;;;;5071566;28;20471;-73
2021/06/16 12:31:35;;;;;;;22.17;21.27;;;32.30;1.30;;;;;;5076726;28;20408;-73
2021/06/16 12:34:03;;;;;;;22.53;21.63;;;32.20;1.20;;;;;;5074182;28;20450;-72
2021/06/16 12:36:34;;;;;;;22.10;21.13;;;32.10;1.00;;;;;;5072708;28;20508;-73
2021/06/16 12:39:11;;;;;;;22.13;21.23;;;32.10;1.00;;;;;;5072147;28;20503;-73
2021/06/16 12:41:40;;;;;;;21.80;20.90;;;32.20;1.60;;;;;;5072198;28;20450;-73
2021/06/16 12:44:26;;;;;;;22.50;21.43;;;32.30;1.00;;;;;;5072142;28;20412;-73